Time;durP1;ratioP1;P1;durP2;ratioP2;P2;SDS_P1;SDS_P2;PMS_P1;PMS_P2;Temp;Humidity;BMP_temperature;BMP_pressure;BME280_temperature;BME280_humidity;BME280_pressure;Samples;Min_cycle;Max_cycle;Signal;HPM_P1;HPM_P2
2021/07/17 00:02:20;;;;;;;;;;;;;;;22.54;61.30;99007.09;5053305;28;857;-59
2021/07/17 00:04:46;;;;;;;;;;;;;;;22.35;61.88;99003.91;5053425;28;853;-59
2021/07/17 00:07:13;;;;;;;;;;;;;;;22.36;61.43;99002.63;5053509;28;958;-59
2021/07/17 00:09:40;;;;;;;;;;;;;;;22.38;61.39;99000.88;5053143;28;798;-59
2021/07/17 00:12:07;;;;;;;;;;;;;;;22.37;61.31;98999.31;5053019;28;1037;-59
2021/07/17 00:14:34;;;;;;;;;;;;;;;22.30;61.23;98996.22;5052643;28;1224;-59
2021/07/17 00:17:01;;;;;;;;;;;;;;;22.35;61.36;98989.84;5053079;28;822;-59
2021/07/17 00:19:28;;;;;;;;;;;;;;;22.35;61.24;98990.59;5052880;28;1971;-59
2021/07/17 00:21:55;;;;;;;;;;;;;;;22.33;61.20;98992.38;5052923;28;835;-59
2021/07/17 00:24:22;;;;;;;;;;;;;;;22.16;61.69;98995.84;5052742;28;862;-59
2021/07/17 00:26:49;;;;;;;;;;;;;;;22.03;61.68;98989.88;5052840;28;842;-59
2021/07/17 00:29:15;;;;;;;;;;;;;;;21.88;62.48;98990.03;5052726;28;819;-59
2021/07/17 00:31:41;;;;;;;;;;;;;;;21.83;62.90;98987.94;5052717;28;798;-59
2021/07/17 00:34:08;;;;;;;;;;;;;;;21.79;62.34;98988.16;5052655;28;827;-59
2021/07/17 00:36:34;;;;;;;;;;;;;;;21.71;62.61;98978.63;5034751;28;1490;-59
2021/07/17 00:39:02;;;;;;;;;;;;;;;21.71;63.11;98972.25;5052539;28;1867;-59
2021/07/17 00:41:29;;;;;;;;;;;;;;;21.62;63.17;98976.03;5052517;28;869;-59
2021/07/17 00:43:56;;;;;;;;;;;;;;;21.67;62.88;98968.91;5052466;28;846;-59
2021/07/17 00:46:22;;;;;;;;;;;;;;;21.70;62.85;98968.69;5052595;28;950;-59
2021/07/17 00:48:49;;;;;;;;;;;;;;;21.58;62.68;98970.63;5052414;28;862;-59
2021/07/17 00:51:16;;;;;;;;;;;;;;;21.39;62.63;98964.53;5052298;28;850;-59
2021/07/17 00:53:43;;;;;;;;;;;;;;;21.18;63.56;98949.03;5052269;28;924;-59
2021/07/17 00:56:11;;;;;;;;;;;;;;;21.02;64.24;98950.41;5034364;28;2458;-59
2021/07/17 00:58:40;;;;;;;;;;;;;;;20.88;64.60;98951.28;5052447;28;1951;-59
2021/07/17 01:01:05;;;;;;;;;;;;;;;20.91;64.68;98937.03;5052169;28;846;-59
2021/07/17 01:03:33;;;;;;;;;;;;;;;21.01;64.55;98932.00;5052109;28;896;-59
2021/07/17 01:06:00;;;;;;;;;;;;;;;21.18;64.14;98932.94;5051853;28;942;-59
2021/07/17 01:08:26;;;;;;;;;;;;;;;21.34;63.77;98916.75;5052020;28;842;-59
2021/07/17 01:10:53;;;;;;;;;;;;;;;21.79;62.26;98920.66;5051897;28;912;-59
2021/07/17 01:13:19;;;;;;;;;;;;;;;22.12;61.00;98904.47;5052057;28;947;-59
2021/07/17 01:15:46;;;;;;;;;;;;;;;22.34;59.91;98915.09;5051632;28;1450;-59
2021/07/17 01:18:13;;;;;;;;;;;;;;;22.59;59.38;98908.53;5051812;28;1918;-59
2021/07/17 01:20:40;;;;;;;;;;;;;;;22.71;58.81;98902.97;5051869;28;799;-60
2021/07/17 01:23:07;;;;;;;;;;;;;;;22.74;58.27;98908.31;5051923;28;890;-59
2021/07/17 01:25:34;;;;;;;;;;;;;;;22.73;58.00;98909.63;5033875;28;1263;-59
2021/07/17 01:28:01;;;;;;;;;;;;;;;22.73;58.15;98923.69;5051776;28;822;-60
2021/07/17 01:30:29;;;;;;;;;;;;;;;22.75;57.84;98920.38;5033835;28;1367;-59
2021/07/17 01:32:55;;;;;;;;;;;;;;;22.77;57.93;98912.94;5033777;28;1283;-59
2021/07/17 01:35:22;;;;;;;;;;;;;;;22.73;58.10;98920.13;5051584;28;924;-60
2021/07/17 01:37:49;;;;;;;;;;;;;;;22.74;57.59;98913.19;5051510;28;1862;-60
2021/07/17 01:40:19;;;;;;;;;;;;;;;22.86;57.60;98914.00;5051537;28;989;-60
2021/07/17 01:42:47;;;;;;;;;;;;;;;22.86;57.33;98909.13;5051480;28;913;-60
2021/07/17 01:45:38;;;;;;;;;;;;;;;22.93;56.57;98908.63;5051574;28;866;-59
2021/07/17 01:48:06;;;;;;;;;;;;;;;23.01;55.93;98906.13;5051484;28;834;-59
2021/07/17 01:50:33;;;;;;;;;;;;;;;23.03;56.01;98904.31;5051415;28;849;-59
2021/07/17 01:53:00;;;;;;;;;;;;;;;23.07;55.09;98906.88;5051244;28;962;-59
2021/07/17 01:55:26;;;;;;;;;;;;;;;23.08;54.98;98907.66;5051486;28;913;-59
2021/07/17 01:57:53;;;;;;;;;;;;;;;23.02;55.06;98902.00;5033398;28;2550;-59
2021/07/17 02:00:21;;;;;;;;;;;;;;;22.96;54.95;98899.16;5051321;28;858;-59
2021/07/17 02:02:48;;;;;;;;;;;;;;;22.94;55.11;98901.72;5051201;28;938;-59
2021/07/17 02:05:15;;;;;;;;;;;;;;;22.93;54.51;98910.69;5051318;28;910;-59
2021/07/17 02:07:42;;;;;;;;;;;;;;;22.92;54.22;98901.47;5051513;28;881;-59
2021/07/17 02:10:11;;;;;;;;;;;;;;;22.97;54.14;98899.94;5051263;28;897;-59
2021/07/17 02:12:38;;;;;;;;;;;;;;;22.96;53.94;98899.16;5051140;28;967;-60
2021/07/17 02:15:07;;;;;;;;;;;;;;;22.98;54.15;98902.25;5050883;28;1201;-59
2021/07/17 02:17:34;;;;;;;;;;;;;;;22.98;53.84;98910.69;5051203;28;1910;-59
2021/07/17 02:20:04;;;;;;;;;;;;;;;23.05;53.79;98909.44;5055234;28;818;-60
2021/07/17 02:22:30;;;;;;;;;;;;;;;23.00;54.11;98901.72;5055263;28;826;-59
2021/07/17 02:24:57;;;;;;;;;;;;;;;22.87;54.69;98904.25;5055333;28;878;-59
2021/07/17 02:27:23;;;;;;;;;;;;;;;22.81;54.85;98904.25;5055421;28;807;-59
2021/07/17 02:29:50;;;;;;;;;;;;;;;22.80;54.67;98902.72;5055256;28;1038;-59
2021/07/17 02:32:16;;;;;;;;;;;;;;;22.81;54.69;98907.84;5055335;28;834;-59
2021/07/17 02:34:43;;;;;;;;;;;;;;;22.77;55.19;98898.88;5054817;28;922;-59
2021/07/17 02:37:10;;;;;;;;;;;;;;;22.80;54.71;98892.19;5054932;28;834;-60
2021/07/17 02:39:37;;;;;;;;;;;;;;;22.82;55.05;98889.66;5054775;28;1882;-59
2021/07/17 02:42:03;;;;;;;;;;;;;;;22.76;55.28;98894.50;5054884;28;873;-59
2021/07/17 02:44:30;;;;;;;;;;;;;;;22.65;55.92;98893.72;5054670;28;866;-59
2021/07/17 02:46:56;;;;;;;;;;;;;;;22.56;55.96;98891.91;5054687;28;803;-59
2021/07/17 02:49:23;;;;;;;;;;;;;;;22.54;55.64;98883.19;5054672;28;826;-60
2021/07/17 02:51:49;;;;;;;;;;;;;;;22.56;55.45;98889.09;5054597;28;877;-60
2021/07/17 02:54:16;;;;;;;;;;;;;;;22.55;55.41;98893.97;5054561;28;819;-59
2021/07/17 02:56:43;;;;;;;;;;;;;;;22.56;55.14;98897.53;5054462;28;1133;-60
2021/07/17 02:59:09;;;;;;;;;;;;;;;22.58;55.02;98889.34;5054414;28;1882;-59
2021/07/17 03:01:36;;;;;;;;;;;;;;;22.54;55.14;98891.63;5054718;28;846;-59
2021/07/17 03:04:03;;;;;;;;;;;;;;;22.51;55.45;98887.00;5054380;28;862;-60
2021/07/17 03:06:28;;;;;;;;;;;;;;;22.48;55.57;98885.97;5054281;28;831;-59
2021/07/17 03:08:55;;;;;;;;;;;;;;;22.40;55.33;98888.53;5036574;28;1557;-60
2021/07/17 03:11:22;;;;;;;;;;;;;;;22.37;55.90;98891.59;5054485;28;827;-60
2021/07/17 03:13:48;;;;;;;;;;;;;;;22.34;55.81;98884.13;5054165;28;1167;-60
2021/07/17 03:16:16;;;;;;;;;;;;;;;22.36;55.27;98885.19;5036273;28;1263;-59
2021/07/17 03:18:43;;;;;;;;;;;;;;;22.41;55.27;98887.25;5054103;28;1906;-59
2021/07/17 03:21:11;;;;;;;;;;;;;;;22.43;55.03;98887.50;5053928;28;856;-60
2021/07/17 03:23:37;;;;;;;;;;;;;;;22.47;54.91;98873.19;5054024;28;847;-60
2021/07/17 03:26:04;;;;;;;;;;;;;;;22.49;55.38;98879.09;5054215;28;846;-60
2021/07/17 03:28:31;;;;;;;;;;;;;;;22.47;55.51;98889.28;5054020;28;840;-61
2021/07/17 03:30:57;;;;;;;;;;;;;;;22.53;54.99;98881.63;5052627;28;886;-60
2021/07/17 03:33:24;;;;;;;;;;;;;;;22.68;54.77;98881.44;5053849;28;866;-60
2021/07/17 03:35:51;;;;;;;;;;;;;;;22.74;54.41;98876.56;5053816;28;886;-60
2021/07/17 03:38:18;;;;;;;;;;;;;;;22.83;54.49;98879.94;5053910;28;1890;-60
2021/07/17 03:40:44;;;;;;;;;;;;;;;22.96;53.79;98867.41;5054051;28;854;-59
2021/07/17 03:43:11;;;;;;;;;;;;;;;23.10;53.61;98871.28;5053668;28;854;-59
2021/07/17 03:45:37;;;;;;;;;;;;;;;23.20;53.20;98878.19;5053678;28;857;-60
2021/07/17 03:48:03;;;;;;;;;;;;;;;23.33;52.95;98872.81;5053576;28;846;-59
2021/07/17 03:50:30;;;;;;;;;;;;;;;23.50;52.15;98875.63;5053400;28;834;-59
2021/07/17 03:52:57;;;;;;;;;;;;;;;23.58;52.54;98881.53;5053393;28;1038;-60
2021/07/17 03:55:23;;;;;;;;;;;;;;;23.48;52.56;98875.38;5053488;28;846;-60
2021/07/17 03:57:50;;;;;;;;;;;;;;;23.49;52.77;98874.06;5053321;28;1973;-60
2021/07/17 04:00:17;;;;;;;;;;;;;;;23.54;52.48;98878.94;5053337;28;846;-60
2021/07/17 04:02:45;;;;;;;;;;;;;;;23.48;52.82;98883.06;5053299;28;858;-60
2021/07/17 04:05:13;;;;;;;;;;;;;;;23.39;52.99;98876.41;5053119;28;941;-60
2021/07/17 04:07:40;;;;;;;;;;;;;;;23.39;52.50;98872.81;5053276;28;803;-60
2021/07/17 04:10:08;;;;;;;;;;;;;;;23.44;53.01;98869.22;5053070;28;877;-59
2021/07/17 04:12:35;;;;;;;;;;;;;;;23.53;52.64;98871.00;5053096;28;1026;-59
2021/07/17 04:15:03;;;;;;;;;;;;;;;23.57;52.82;98868.69;5052797;28;1271;-59
2021/07/17 04:17:30;;;;;;;;;;;;;;;23.56;53.05;98865.09;5053027;28;1981;-60
2021/07/17 04:19:56;;;;;;;;;;;;;;;23.55;53.62;98868.44;5053212;28;826;-59
2021/07/17 04:22:23;;;;;;;;;;;;;;;23.55;53.37;98868.44;5052840;28;947;-59
2021/07/17 04:24:49;;;;;;;;;;;;;;;23.59;53.27;98866.13;5052932;28;834;-60
2021/07/17 04:27:16;;;;;;;;;;;;;;;23.65;53.53;98861.25;5052891;28;819;-60
2021/07/17 04:29:42;;;;;;;;;;;;;;;23.73;53.37;98855.84;5052745;28;881;-60
2021/07/17 04:32:09;;;;;;;;;;;;;;;23.90;52.82;98858.63;5053026;28;834;-59
2021/07/17 04:34:36;;;;;;;;;;;;;;;24.10;52.33;98855.50;5052772;28;878;-60
2021/07/17 04:37:03;;;;;;;;;;;;;;;24.34;51.52;98848.47;5052627;28;869;-59
2021/07/17 04:39:29;;;;;;;;;;;;;;;24.62;51.71;98848.31;5052538;28;1968;-59
2021/07/17 04:41:56;;;;;;;;;;;;;;;24.96;50.67;98845.28;5052029;28;878;-60
2021/07/17 04:44:23;;;;;;;;;;;;;;;25.22;50.08;98842.78;5052684;28;889;-60
2021/07/17 04:46:49;;;;;;;;;;;;;;;25.34;49.99;98849.09;5052529;28;901;-59
2021/07/17 04:49:17;;;;;;;;;;;;;;;25.37;50.11;98850.88;5052400;28;929;-60
2021/07/17 04:51:43;;;;;;;;;;;;;;;25.32;50.07;98853.75;5052247;28;1185;-60
2021/07/17 04:54:10;;;;;;;;;;;;;;;25.22;50.29;98856.94;5052346;28;815;-60
2021/07/17 04:56:36;;;;;;;;;;;;;;;25.15;50.64;98856.69;5052214;28;854;-60
2021/07/17 04:59:03;;;;;;;;;;;;;;;25.08;51.06;98852.38;5052209;28;1890;-61
2021/07/17 05:01:29;;;;;;;;;;;;;;;25.00;51.18;98855.00;5052203;28;978;-60
2021/07/17 05:03:56;;;;;;;;;;;;;;;25.02;51.44;98860.13;5052029;28;877;-59
2021/07/17 05:06:22;;;;;;;;;;;;;;;25.07;51.36;98862.13;5052180;28;830;-60
2021/07/17 05:13:59;;;;;;;;;;;;;;;25.71;49.94;98863.91;5638349;22;1690;-60
2021/07/17 05:16:26;;;;;;;;;;;;;;;26.00;49.25;98859.53;5051957;28;877;-60
2021/07/17 05:18:53;;;;;;;;;;;;;;;26.45;48.21;98856.13;5051904;28;1973;-60
2021/07/17 05:21:21;;;;;;;;;;;;;;;26.84;46.96;98858.44;5051708;28;1140;-59
2021/07/17 05:23:48;;;;;;;;;;;;;;;27.31;46.39;98854.34;5051877;28;869;-60
2021/07/17 05:26:14;;;;;;;;;;;;;;;27.81;45.16;98854.75;5051913;28;802;-60
2021/07/17 05:28:40;;;;;;;;;;;;;;;28.24;44.48;98860.09;5051781;28;864;-60
2021/07/17 05:31:07;;;;;;;;;;;;;;;28.60;44.08;98862.47;5051735;28;946;-60
2021/07/17 05:33:33;;;;;;;;;;;;;;;28.79;43.19;98870.06;5051972;28;806;-60
2021/07/17 05:36:00;;;;;;;;;;;;;;;28.93;42.55;98863.00;5051698;28;889;-59
2021/07/17 05:38:27;;;;;;;;;;;;;;;29.00;42.90;98862.31;5051539;28;1980;-60
2021/07/17 05:40:53;;;;;;;;;;;;;;;29.24;42.15;98860.47;5051672;28;873;-60
2021/07/17 05:43:22;;;;;;;;;;;;;;;29.33;42.31;98862.06;5051671;28;873;-60
2021/07/17 05:45:52;;;;;;;;;;;;;;;29.44;42.05;98856.84;5051589;28;914;-60
2021/07/17 05:48:18;;;;;;;;;;;;;;;29.73;41.18;98861.84;5051430;28;1002;-60
2021/07/17 05:50:45;;;;;;;;;;;;;;;29.97;40.92;98854.97;5051474;28;873;-59
2021/07/17 05:53:11;;;;;;;;;;;;;;;30.17;40.49;98856.97;5050639;28;854;-59
2021/07/17 05:55:38;;;;;;;;;;;;;;;30.20;41.28;98855.09;5051653;28;858;-60
2021/07/17 05:58:04;;;;;;;;;;;;;;;30.48;39.97;98857.13;5051336;28;1959;-60
2021/07/17 06:00:31;;;;;;;;;;;;;;;30.45;40.25;98861.09;5051302;28;929;-60
2021/07/17 06:02:57;;;;;;;;;;;;;;;30.50;39.88;98865.88;5051415;28;865;-60
2021/07/17 06:05:24;;;;;;;;;;;;;;;30.61;39.92;98859.84;5051330;28;873;-60
2021/07/17 06:07:50;;;;;;;;;;;;;;;30.63;40.15;98868.59;5051568;28;881;-59
2021/07/17 06:10:16;;;;;;;;;;;;;;;30.78;40.26;98869.97;5051318;28;873;-59
2021/07/17 06:12:42;;;;;;;;;;;;;;;31.02;39.89;98868.69;5051148;28;884;-60
2021/07/17 06:15:10;;;;;;;;;;;;;;;31.28;39.21;98867.56;5050954;28;1316;-60
2021/07/17 06:17:36;;;;;;;;;;;;;;;31.52;39.46;98869.91;5051251;28;1975;-60
2021/07/17 06:20:04;;;;;;;;;;;;;;;31.64;38.88;98864.56;5051248;28;860;-60
2021/07/17 06:22:31;;;;;;;;;;;;;;;31.49;39.12;98853.16;5051247;28;850;-59
2021/07/17 06:24:58;;;;;;;;;;;;;;;31.63;39.10;98859.44;5051282;28;881;-59
2021/07/17 06:27:24;;;;;;;;;;;;;;;31.65;39.31;98879.63;5051314;28;873;-59
2021/07/17 06:29:51;;;;;;;;;;;;;;;31.94;39.01;98869.47;5051139;28;807;-59
2021/07/17 06:32:18;;;;;;;;;;;;;;;32.07;38.11;98877.09;5051146;28;842;-59
2021/07/17 06:34:45;;;;;;;;;;;;;;;32.37;38.25;98868.97;5051043;28;881;-59
2021/07/17 06:37:12;;;;;;;;;;;;;;;32.70;37.35;98869.81;5051095;28;897;-60
2021/07/17 06:39:39;;;;;;;;;;;;;;;33.23;36.43;98876.56;5051002;28;1886;-60
2021/07/17 06:42:05;;;;;;;;;;;;;;;33.43;36.31;98878.31;5050912;28;844;-60
2021/07/17 06:44:32;;;;;;;;;;;;;;;33.60;35.86;98891.94;5051051;28;826;-59
2021/07/17 06:46:59;;;;;;;;;;;;;;;33.96;35.77;98891.41;5050983;28;854;-59
2021/07/17 06:49:25;;;;;;;;;;;;;;;34.67;35.13;98886.44;5050929;28;826;-59
2021/07/17 06:51:52;;;;;;;;;;;;;;;35.37;34.10;98889.84;5051274;28;787;-59
2021/07/17 06:54:19;;;;;;;;;;;;;;;35.47;33.17;98887.75;5033090;28;848;-59
2021/07/17 06:56:46;;;;;;;;;;;;;;;35.06;33.77;98889.53;5050998;28;869;-59
2021/07/17 06:59:13;;;;;;;;;;;;;;;34.97;34.67;98888.13;5050829;28;1890;-59
2021/07/17 07:01:40;;;;;;;;;;;;;;;35.14;33.82;98890.97;5050876;28;929;-59
2021/07/17 07:04:07;;;;;;;;;;;;;;;35.53;33.79;98890.38;5051770;28;873;-59
2021/07/17 07:06:33;;;;;;;;;;;;;;;35.92;33.07;98890.47;5054447;28;869;-59
2021/07/17 07:09:00;;;;;;;;;;;;;;;36.00;33.73;98891.09;5054551;28;821;-59
2021/07/17 07:11:27;;;;;;;;;;;;;;;36.43;32.46;98894.28;5054119;28;897;-59
2021/07/17 07:13:54;;;;;;;;;;;;;;;36.55;32.13;98877.16;5054306;28;1213;-59
2021/07/17 07:16:21;;;;;;;;;;;;;;;36.49;31.29;98889.00;5054196;28;797;-59
2021/07/17 07:18:47;;;;;;;;;;;;;;;36.45;30.84;98887.94;5054159;28;1910;-59
2021/07/17 07:21:15;;;;;;;;;;;;;;;36.20;31.48;98886.13;5054171;28;802;-59
2021/07/17 07:23:41;;;;;;;;;;;;;;;36.23;31.68;98889.91;5054324;28;857;-60
2021/07/17 07:26:08;;;;;;;;;;;;;;;36.45;30.59;98882.19;5053998;28;844;-60
2021/07/17 07:28:35;;;;;;;;;;;;;;;36.47;31.12;98883.09;5054103;28;857;-59
2021/07/17 07:31:01;;;;;;;;;;;;;;;36.56;30.47;98881.56;5054072;28;802;-59
2021/07/17 07:33:27;;;;;;;;;;;;;;;36.77;30.75;98878.06;5036071;28;893;-59
2021/07/17 07:35:54;;;;;;;;;;;;;;;36.91;31.69;98870.44;5054111;28;862;-59
2021/07/17 07:38:20;;;;;;;;;;;;;;;36.88;31.15;98877.41;5053885;28;1890;-59
2021/07/17 07:40:47;;;;;;;;;;;;;;;36.91;30.65;98881.94;5054265;28;846;-60
2021/07/17 07:43:12;;;;;;;;;;;;;;;36.85;30.11;98875.00;5053759;28;853;-59
2021/07/17 07:45:39;;;;;;;;;;;;;;;36.88;31.19;98883.19;5053574;28;890;-59
2021/07/17 07:48:05;;;;;;;;;;;;;;;36.80;30.67;98882.59;5053591;28;795;-60
2021/07/17 07:50:32;;;;;;;;;;;;;;;37.18;31.17;98889.63;5053593;28;794;-59
2021/07/17 07:52:59;;;;;;;;;;;;;;;37.99;29.40;98891.63;5053744;28;823;-59
2021/07/17 07:55:25;;;;;;;;;;;;;;;38.32;27.86;98890.91;5053415;28;925;-59
2021/07/17 07:57:52;;;;;;;;;;;;;;;38.51;28.78;98887.13;5035548;28;1941;-59
2021/07/17 08:00:19;;;;;;;;;;;;;;;38.69;28.73;98890.47;5053393;28;878;-59
2021/07/17 08:02:46;;;;;;;;;;;;;;;38.36;28.89;98887.56;5053436;28;853;-59
2021/07/17 08:05:12;;;;;;;;;;;;;;;38.40;29.56;98885.69;5053259;28;912;-59
2021/07/17 08:07:39;;;;;;;;;;;;;;;38.59;28.63;98893.44;5053270;28;913;-59
2021/07/17 08:10:07;;;;;;;;;;;;;;;38.13;29.30;98899.75;5053079;28;802;-59
2021/07/17 08:12:33;;;;;;;;;;;;;;;38.05;29.80;98891.31;5053131;28;1016;-59
2021/07/17 08:15:00;;;;;;;;;;;;;;;38.77;29.62;98902.53;5052615;28;1223;-59
2021/07/17 08:17:27;;;;;;;;;;;;;;;38.51;28.24;98897.94;5052400;28;1913;-59
2021/07/17 08:19:53;;;;;;;;;;;;;;;38.06;28.96;98894.94;5053241;28;834;-59
2021/07/17 08:22:20;;;;;;;;;;;;;;;37.93;28.38;98893.34;5053032;28;874;-60
2021/07/17 08:24:46;;;;;;;;;;;;;;;37.60;29.92;98885.38;5052948;28;1143;-59
2021/07/17 08:27:13;;;;;;;;;;;;;;;38.01;28.75;98885.25;5052800;28;969;-60
2021/07/17 08:29:41;;;;;;;;;;;;;;;37.87;28.86;98881.38;5052789;28;1164;-59
2021/07/17 08:32:07;;;;;;;;;;;;;;;37.77;29.54;98887.25;5052757;28;891;-59
2021/07/17 08:34:34;;;;;;;;;;;;;;;37.45;27.93;98882.81;5052756;28;818;-60
2021/07/17 08:37:00;;;;;;;;;;;;;;;37.40;30.19;98891.19;5052742;28;865;-59
2021/07/17 08:39:27;;;;;;;;;;;;;;;38.09;29.34;98893.69;5052595;28;1989;-59
2021/07/17 08:41:54;;;;;;;;;;;;;;;38.51;29.11;98886.38;5052358;28;906;-59
2021/07/17 08:44:21;;;;;;;;;;;;;;;38.10;27.62;98884.44;5052789;28;830;-59
2021/07/17 08:46:51;;;;;;;;;;;;;;;38.05;28.99;98890.56;5052486;28;845;-59
2021/07/17 08:49:19;;;;;;;;;;;;;;;38.50;28.31;98885.63;5052434;28;934;-59
2021/07/17 08:51:46;;;;;;;;;;;;;;;38.65;28.55;98889.44;5052318;28;881;-59
2021/07/17 08:54:13;;;;;;;;;;;;;;;38.35;27.45;98886.06;5052344;28;913;-59
2021/07/17 08:56:41;;;;;;;;;;;;;;;37.69;27.91;98886.69;5052162;28;976;-59
2021/07/17 08:59:07;;;;;;;;;;;;;;;37.31;29.68;98886.22;5052235;28;1971;-59
2021/07/17 09:01:34;;;;;;;;;;;;;;;37.33;30.16;98888.50;5052204;28;829;-59
2021/07/17 09:04:03;;;;;;;;;;;;;;;37.57;29.06;98880.81;5052224;28;884;-60
2021/07/17 09:06:32;;;;;;;;;;;;;;;37.11;29.86;98879.81;5052159;28;821;-59
2021/07/17 09:08:59;;;;;;;;;;;;;;;36.85;29.95;98886.50;5052256;28;878;-60
2021/07/17 09:11:40;;;;;;;;;;;;;;;36.59;31.17;98883.97;5052301;28;878;-59
2021/07/17 09:14:07;;;;;;;;;;;;;;;36.46;31.79;98883.69;5051603;28;1205;-59
2021/07/17 09:16:36;;;;;;;;;;;;;;;36.08;33.11;98883.06;5052302;28;921;-59
2021/07/17 09:19:04;;;;;;;;;;;;;;;36.18;31.95;98874.47;5051823;28;1969;-59
2021/07/17 09:21:33;;;;;;;;;;;;;;;36.11;32.70;98881.09;5051788;28;933;-59
2021/07/17 09:24:04;;;;;;;;;;;;;;;36.24;32.58;98877.78;5051854;28;826;-60
2021/07/17 09:26:34;;;;;;;;;;;;;;;36.07;33.34;98872.16;5051781;28;915;-59
2021/07/17 09:29:02;;;;;;;;;;;;;;;36.08;33.39;98879.41;5051766;28;988;-59
2021/07/17 09:31:32;;;;;;;;;;;;;;;36.07;34.01;98869.28;5051833;28;846;-59
2021/07/17 09:34:09;;;;;;;;;;;;;;;36.23;32.81;98872.66;5051735;28;961;-60
2021/07/17 09:36:51;;;;;;;;;;;;;;;35.95;33.67;98863.38;5051632;28;826;-59
2021/07/17 09:39:19;;;;;;;;;;;;;;;36.43;33.57;98871.28;5051527;28;1945;-60
2021/07/17 09:42:02;;;;;;;;;;;;;;;36.01;33.28;98869.59;5051557;28;803;-60
2021/07/17 09:44:30;;;;;;;;;;;;;;;35.60;33.24;98865.72;5051641;28;865;-60
2021/07/17 09:46:57;;;;;;;;;;;;;;;35.67;34.44;98864.84;5051542;28;936;-60
2021/07/17 09:49:25;;;;;;;;;;;;;;;35.57;33.37;98856.16;5051508;28;846;-60
2021/07/17 09:52:10;;;;;;;;;;;;;;;35.15;34.70;98869.50;5051509;28;822;-59
2021/07/17 09:54:40;;;;;;;;;;;;;;;35.09;34.19;98848.91;5051463;28;862;-60
2021/07/17 09:57:07;;;;;;;;;;;;;;;34.90;35.25;98860.28;5051498;28;834;-59
2021/07/17 09:59:34;;;;;;;;;;;;;;;34.90;35.68;98861.03;5033543;28;1894;-59
2021/07/17 10:02:01;;;;;;;;;;;;;;;34.84;35.86;98863.44;5051353;28;814;-60
2021/07/17 10:04:28;;;;;;;;;;;;;;;34.47;36.13;98854.72;5051422;28;881;-60
2021/07/17 10:07:04;;;;;;;;;;;;;;;34.23;35.73;98861.34;5051389;28;838;-60
2021/07/17 10:09:32;;;;;;;;;;;;;;;34.03;36.88;98869.75;5051207;28;858;-60
2021/07/17 10:11:59;;;;;;;;;;;;;;;33.78;35.97;98861.22;5051545;28;822;-60
2021/07/17 10:14:27;;;;;;;;;;;;;;;33.46;36.81;98862.84;5051043;28;1178;-60
2021/07/17 10:16:55;;;;;;;;;;;;;;;33.26;37.01;98864.69;5051562;28;865;-60
2021/07/17 10:19:23;;;;;;;;;;;;;;;33.28;37.69;98862.00;5051489;28;1975;-60
2021/07/17 10:21:50;;;;;;;;;;;;;;;33.38;37.81;98858.50;5051114;28;866;-60
2021/07/17 10:24:17;;;;;;;;;;;;;;;33.68;38.42;98858.25;5051394;28;831;-59
2021/07/17 10:26:44;;;;;;;;;;;;;;;33.92;37.72;98858.78;5051189;28;842;-59
2021/07/17 10:29:12;;;;;;;;;;;;;;;34.16;37.18;98862.94;5051177;28;833;-59
2021/07/17 10:31:39;;;;;;;;;;;;;;;33.88;34.60;98858.44;5051174;28;893;-60
2021/07/17 10:34:06;;;;;;;;;;;;;;;33.41;36.20;98865.94;5051059;28;922;-60
2021/07/17 10:36:33;;;;;;;;;;;;;;;33.25;35.94;98860.31;5051039;28;878;-60
2021/07/17 10:39:06;;;;;;;;;;;;;;;33.25;36.63;98868.91;5051721;28;1901;-60
2021/07/17 10:41:34;;;;;;;;;;;;;;;33.57;38.06;98864.47;5054875;28;803;-60
2021/07/17 10:44:01;;;;;;;;;;;;;;;33.97;35.81;98866.38;5054854;28;822;-60
2021/07/17 10:46:35;;;;;;;;;;;;;;;33.88;36.00;98858.44;5054831;28;822;-59
2021/07/17 10:49:03;;;;;;;;;;;;;;;33.77;35.40;98859.69;5054766;28;917;-60
2021/07/17 10:51:33;;;;;;;;;;;;;;;33.56;34.66;98866.56;5054698;28;826;-60
2021/07/17 10:54:04;;;;;;;;;;;;;;;33.51;34.74;98861.81;5054847;28;901;-59
2021/07/17 10:56:33;;;;;;;;;;;;;;;33.71;35.45;98862.84;5054864;28;905;-60
2021/07/17 10:59:02;;;;;;;;;;;;;;;33.95;34.90;98863.34;5054357;28;1941;-59
2021/07/17 11:01:49;;;;;;;;;;;;;;;33.97;35.28;98864.28;5054642;28;826;-60
2021/07/17 11:04:34;;;;;;;;;;;;;;;33.93;34.40;98866.81;5054372;28;1566;-60
2021/07/17 11:07:22;;;;;;;;;;;;;;;33.82;35.65;98855.06;5054455;28;845;-60
2021/07/17 11:09:55;;;;;;;;;;;;;;;34.01;34.23;98855.25;5040289;28;1723;-60
2021/07/17 11:12:24;;;;;;;;;;;;;;;33.99;33.65;98860.81;5054302;28;826;-60
2021/07/17 11:14:51;;;;;;;;;;;;;;;34.29;33.94;98851.13;5054129;28;1180;-60
2021/07/17 11:17:36;;;;;;;;;;;;;;;34.28;34.40;98851.72;5054263;28;873;-60
2021/07/17 11:20:28;;;;;;;;;;;;;;;34.45;34.13;98853.81;5054163;28;897;-60
2021/07/17 11:23:01;;;;;;;;;;;;;;;34.49;34.07;98851.28;5054003;28;953;-60
2021/07/17 11:25:28;;;;;;;;;;;;;;;34.45;34.44;98845.19;5054140;28;806;-59
2021/07/17 11:27:55;;;;;;;;;;;;;;;34.60;34.04;98845.00;5054012;28;941;-60
2021/07/17 11:30:23;;;;;;;;;;;;;;;34.76;33.11;98843.47;5053934;28;825;-60
2021/07/17 11:33:05;;;;;;;;;;;;;;;35.06;32.35;98847.22;5053964;28;823;-60
2021/07/17 11:35:32;;;;;;;;;;;;;;;35.03;33.56;98844.78;5053930;28;803;-60
2021/07/17 11:37:59;;;;;;;;;;;;;;;34.87;31.36;98844.28;5053643;28;1953;-60
2021/07/17 11:40:26;;;;;;;;;;;;;;;34.60;32.48;98844.25;5053843;28;861;-60
2021/07/17 11:42:59;;;;;;;;;;;;;;;34.64;31.19;98838.88;5053784;28;838;-60
2021/07/17 11:45:26;;;;;;;;;;;;;;;34.65;32.67;98846.09;5054049;28;771;-60
2021/07/17 11:47:53;;;;;;;;;;;;;;;34.77;31.24;98838.47;5053933;28;1017;-60
2021/07/17 11:50:21;;;;;;;;;;;;;;;34.84;31.27;98839.72;5052743;28;811;-60
2021/07/17 11:52:48;;;;;;;;;;;;;;;35.05;30.99;98836.34;5053663;28;876;-60
2021/07/17 11:55:15;;;;;;;;;;;;;;;35.01;31.27;98839.63;5054001;28;782;-60
2021/07/17 11:57:42;;;;;;;;;;;;;;;34.85;31.18;98841.25;5054204;28;1957;-60
2021/07/17 12:00:16;;;;;;;;;;;;;;;35.09;30.92;98831.66;5053819;28;969;-60
2021/07/17 12:02:43;;;;;;;;;;;;;;;35.21;29.20;98842.63;5053369;28;909;-60
2021/07/17 12:05:11;;;;;;;;;;;;;;;35.14;30.73;98833.56;5053269;28;834;-60
2021/07/17 12:07:39;;;;;;;;;;;;;;;35.21;31.30;98842.63;5053541;28;807;-59
2021/07/17 12:10:07;;;;;;;;;;;;;;;35.29;30.56;98838.28;5053329;28;826;-60
2021/07/17 12:12:40;;;;;;;;;;;;;;;35.47;31.05;98843.91;5053077;28;940;-61
2021/07/17 12:15:09;;;;;;;;;;;;;;;35.75;31.63;98843.25;5052980;28;1149;-60
2021/07/17 12:18:02;;;;;;;;;;;;;;;36.10;31.36;98834.31;5052977;28;1970;-60
2021/07/17 12:20:31;;;;;;;;;;;;;;;35.82;31.65;98841.56;5022844;28;1167;-60
2021/07/17 12:23:00;;;;;;;;;;;;;;;35.54;30.39;98843.03;5052944;28;881;-60
2021/07/17 12:25:35;;;;;;;;;;;;;;;35.43;30.50;98844.34;5052939;28;924;-61
2021/07/17 12:28:04;;;;;;;;;;;;;;;35.77;30.37;98842.63;5052785;28;799;-60
2021/07/17 12:30:32;;;;;;;;;;;;;;;36.11;30.42;98841.59;5052794;28;902;-60
2021/07/17 12:33:11;;;;;;;;;;;;;;;36.20;29.42;98845.09;5052777;28;933;-60
2021/07/17 12:35:38;;;;;;;;;;;;;;;35.82;28.96;98850.19;5052514;28;938;-61
2021/07/17 12:38:34;;;;;;;;;;;;;;;35.85;29.09;98845.34;5052720;28;1953;-60
2021/07/17 12:41:03;;;;;;;;;;;;;;;35.87;27.71;98845.50;5036011;28;1484;-61
2021/07/17 12:43:32;;;;;;;;;;;;;;;36.33;26.95;98839.63;5052682;28;881;-60
2021/07/17 12:46:05;;;;;;;;;;;;;;;36.56;27.31;98841.28;5052862;28;921;-61
2021/07/17 12:48:34;;;;;;;;;;;;;;;36.79;26.96;98838.66;5052464;28;872;-61
2021/07/17 12:51:07;;;;;;;;;;;;;;;36.76;26.73;98839.88;5052731;28;818;-60
2021/07/17 12:53:34;;;;;;;;;;;;;;;36.73;26.67;98828.84;5052334;28;944;-60
2021/07/17 12:56:01;;;;;;;;;;;;;;;36.51;26.43;98837.34;5052388;28;858;-60
2021/07/17 12:58:28;;;;;;;;;;;;;;;36.34;26.67;98843.28;5052174;28;1890;-60
2021/07/17 13:00:55;;;;;;;;;;;;;;;35.79;27.55;98831.31;5052261;28;941;-60
2021/07/17 13:03:23;;;;;;;;;;;;;;;35.67;29.55;98836.13;5052030;28;904;-61
2021/07/17 13:05:51;;;;;;;;;;;;;;;35.95;29.21;98840.38;5052099;28;897;-61
2021/07/17 13:08:22;;;;;;;;;;;;;;;35.86;28.94;98836.13;5034265;28;1299;-60
2021/07/17 13:10:50;;;;;;;;;;;;;;;36.11;29.30;98835.09;5052390;28;814;-60
2021/07/17 13:13:16;;;;;;;;;;;;;;;36.25;28.47;98835.41;5052385;28;895;-60
2021/07/17 13:15:50;;;;;;;;;;;;;;;36.56;28.28;98841.28;5051794;28;1440;-60